sensor_id;sensor_type;location;lat;lon;timestamp;pressure;altitude;pressure_sealevel;temperature;humidity
40502;BME280;29631;49.168;9.848;2023-07-08T00:01:16;96822.19;;;24.68;63.36
40502;BME280;29631;49.168;9.848;2023-07-08T00:03:43;96825.91;;;24.72;63.61
40502;BME280;29631;49.168;9.848;2023-07-08T00:06:26;96817.56;;;24.68;63.90
40502;BME280;29631;49.168;9.848;2023-07-08T00:08:51;96823.75;;;24.69;63.28
40502;BME280;29631;49.168;9.848;2023-07-08T00:11:18;96811.50;;;24.58;64.04
40502;BME280;29631;49.168;9.848;2023-07-08T00:13:44;96814.78;;;24.55;64.49
40502;BME280;29631;49.168;9.848;2023-07-08T00:16:12;96816.22;;;24.47;64.55
40502;BME280;29631;49.168;9.848;2023-07-08T00:18:38;96809.53;;;24.40;64.60
40502;BME280;29631;49.168;9.848;2023-07-08T00:21:12;96810.91;;;24.37;64.51
40502;BME280;29631;49.168;9.848;2023-07-08T00:23:48;96798.53;;;24.36;64.53
40502;BME280;29631;49.168;9.848;2023-07-08T00:26:30;96810.09;;;24.37;64.80
40502;BME280;29631;49.168;9.848;2023-07-08T00:28:56;96808.53;;;24.36;64.02
40502;BME280;29631;49.168;9.848;2023-07-08T00:31:23;96810.16;;;24.32;64.93
40502;BME280;29631;49.168;9.848;2023-07-08T00:33:55;96802.66;;;24.29;65.03
40502;BME280;29631;49.168;9.848;2023-07-08T00:36:22;96790.84;;;24.25;65.05
40502;BME280;29631;49.168;9.848;2023-07-08T00:38:48;96797.59;;;24.22;65.24
40502;BME280;29631;49.168;9.848;2023-07-08T00:43:53;96784.97;;;24.18;65.14
40502;BME280;29631;49.168;9.848;2023-07-08T00:51:37;96787.22;;;24.11;65.06
40502;BME280;29631;49.168;9.848;2023-07-08T00:59:31;96795.66;;;24.05;65.58
40502;BME280;29631;49.168;9.848;2023-07-08T01:02:03;96787.41;;;23.96;65.56
40502;BME280;29631;49.168;9.848;2023-07-08T01:04:49;96796.22;;;24.02;65.99
40502;BME280;29631;49.168;9.848;2023-07-08T01:07:16;96794.94;;;23.94;65.72
40502;BME280;29631;49.168;9.848;2023-07-08T01:10:01;96799.81;;;23.92;66.16
40502;BME280;29631;49.168;9.848;2023-07-08T01:12:34;96804.41;;;23.92;66.16
40502;BME280;29631;49.168;9.848;2023-07-08T01:15:02;96798.25;;;23.86;65.99
40502;BME280;29631;49.168;9.848;2023-07-08T01:17:29;96800.41;;;23.89;65.60
40502;BME280;29631;49.168;9.848;2023-07-08T01:19:59;96803.66;;;23.86;65.76
40502;BME280;29631;49.168;9.848;2023-07-08T01:22:26;96809.03;;;23.86;65.73
40502;BME280;29631;49.168;9.848;2023-07-08T01:24:58;96814.41;;;23.86;65.81
40502;BME280;29631;49.168;9.848;2023-07-08T01:27:32;96806.41;;;23.81;65.95
40502;BME280;29631;49.168;9.848;2023-07-08T01:29:59;96804.78;;;23.80;65.99
40502;BME280;29631;49.168;9.848;2023-07-08T01:32:27;96808.56;;;23.79;66.01
40502;BME280;29631;49.168;9.848;2023-07-08T01:34:57;96803.75;;;23.76;65.98
40502;BME280;29631;49.168;9.848;2023-07-08T01:40:31;96803.25;;;23.69;66.45
40502;BME280;29631;49.168;9.848;2023-07-08T01:42:58;96803.25;;;23.69;66.12
40502;BME280;29631;49.168;9.848;2023-07-08T01:45:28;96791.44;;;23.65;66.51
40502;BME280;29631;49.168;9.848;2023-07-08T01:48:04;96787.16;;;23.59;66.58
40502;BME280;29631;49.168;9.848;2023-07-08T01:50:33;96783.97;;;23.57;66.37
40502;BME280;29631;49.168;9.848;2023-07-08T01:53:05;96772.16;;;23.53;66.63
40502;BME280;29631;49.168;9.848;2023-07-08T01:55:34;96765.72;;;23.49;66.22
40502;BME280;29631;49.168;9.848;2023-07-08T01:57:59;96777.78;;;23.57;66.69
40502;BME280;29631;49.168;9.848;2023-07-08T02:00:25;96770.56;;;23.52;66.77
40502;BME280;29631;49.168;9.848;2023-07-08T02:02:51;96774.88;;;23.48;66.57
40502;BME280;29631;49.168;9.848;2023-07-08T02:05:17;96775.97;;;23.47;66.87
40502;BME280;29631;49.168;9.848;2023-07-08T02:07:43;96784.88;;;23.48;66.89
40502;BME280;29631;49.168;9.848;2023-07-08T02:10:09;96779.25;;;23.44;66.93
40502;BME280;29631;49.168;9.848;2023-07-08T02:12:35;96774.41;;;23.41;66.82
40502;BME280;29631;49.168;9.848;2023-07-08T02:15:01;96788.16;;;23.40;66.68
40502;BME280;29631;49.168;9.848;2023-07-08T02:17:28;96778.75;;;23.38;67.03
40502;BME280;29631;49.168;9.848;2023-07-08T02:19:55;96773.38;;;23.38;67.08
40502;BME280;29631;49.168;9.848;2023-07-08T02:22:21;96779.34;;;23.30;66.73
40502;BME280;29631;49.168;9.848;2023-07-08T02:24:47;96774.03;;;23.25;67.21
40502;BME280;29631;49.168;9.848;2023-07-08T02:27:14;96784.75;;;23.30;67.39
40502;BME280;29631;49.168;9.848;2023-07-08T02:29:40;96775.41;;;23.22;66.91
40502;BME280;29631;49.168;9.848;2023-07-08T02:32:08;96776.75;;;23.20;67.42
40502;BME280;29631;49.168;9.848;2023-07-08T02:34:38;96775.69;;;23.16;67.19
40502;BME280;29631;49.168;9.848;2023-07-08T02:37:04;96788.06;;;23.17;67.39
40502;BME280;29631;49.168;9.848;2023-07-08T02:39:30;96781.91;;;23.11;67.13
40502;BME280;29631;49.168;9.848;2023-07-08T02:41:56;96791.34;;;23.14;67.46
40502;BME280;29631;49.168;9.848;2023-07-08T02:44:22;96788.13;;;23.12;67.39
40502;BME280;29631;49.168;9.848;2023-07-08T02:46:48;96791.34;;;23.09;67.22
40502;BME280;29631;49.168;9.848;2023-07-08T02:49:14;96788.94;;;23.07;67.56
40502;BME280;29631;49.168;9.848;2023-07-08T02:51:39;96791.94;;;23.06;67.24
40502;BME280;29631;49.168;9.848;2023-07-08T02:54:05;96798.41;;;23.00;67.83
40502;BME280;29631;49.168;9.848;2023-07-08T02:56:31;96801.06;;;23.05;67.32
40502;BME280;29631;49.168;9.848;2023-07-08T02:58:56;96788.19;;;22.97;67.56
40502;BME280;29631;49.168;9.848;2023-07-08T03:01:22;96783.63;;;22.97;67.40
40502;BME280;29631;49.168;9.848;2023-07-08T03:03:48;96793.53;;;23.07;67.47
40502;BME280;29631;49.168;9.848;2023-07-08T03:06:15;96793.00;;;23.05;67.10
40502;BME280;29631;49.168;9.848;2023-07-08T03:08:41;96787.09;;;22.98;67.14
40502;BME280;29631;49.168;9.848;2023-07-08T03:11:08;96798.09;;;23.01;67.55
40502;BME280;29631;49.168;9.848;2023-07-08T03:13:34;96804.31;;;22.97;67.57
40502;BME280;29631;49.168;9.848;2023-07-08T03:16:02;96801.66;;;22.92;68.09
40502;BME280;29631;49.168;9.848;2023-07-08T03:18:29;96807.84;;;22.92;67.96
40502;BME280;29631;49.168;9.848;2023-07-08T03:20:56;96802.19;;;22.89;68.11
40502;BME280;29631;49.168;9.848;2023-07-08T03:23:23;96806.00;;;22.88;67.70
40502;BME280;29631;49.168;9.848;2023-07-08T03:25:50;96804.38;;;22.87;67.55
40502;BME280;29631;49.168;9.848;2023-07-08T03:28:16;96809.78;;;22.87;68.15
40502;BME280;29631;49.168;9.848;2023-07-08T03:30:43;96800.63;;;22.83;67.99
40502;BME280;29631;49.168;9.848;2023-07-08T03:33:09;96814.91;;;22.83;67.66
40502;BME280;29631;49.168;9.848;2023-07-08T03:35:36;96807.66;;;22.79;68.14
40502;BME280;29631;49.168;9.848;2023-07-08T03:38:03;96812.50;;;22.82;68.00
40502;BME280;29631;49.168;9.848;2023-07-08T03:40:29;96821.63;;;22.81;68.07
40502;BME280;29631;49.168;9.848;2023-07-08T03:42:55;96820.81;;;22.80;67.91
40502;BME280;29631;49.168;9.848;2023-07-08T03:45:20;96819.75;;;22.81;68.15
40502;BME280;29631;49.168;9.848;2023-07-08T03:47:46;96826.47;;;22.79;68.39
40502;BME280;29631;49.168;9.848;2023-07-08T03:50:24;96834.81;;;22.82;68.64
40502;BME280;29631;49.168;9.848;2023-07-08T03:52:54;96840.97;;;22.83;68.61
40502;BME280;29631;49.168;9.848;2023-07-08T03:55:20;96833.47;;;22.80;68.80
40502;BME280;29631;49.168;9.848;2023-07-08T03:57:46;96839.59;;;22.85;68.50
40502;BME280;29631;49.168;9.848;2023-07-08T04:00:13;96841.50;;;22.85;68.06
40502;BME280;29631;49.168;9.848;2023-07-08T04:02:41;96856.28;;;22.87;68.39
40502;BME280;29631;49.168;9.848;2023-07-08T04:05:13;96857.59;;;22.90;68.46
40502;BME280;29631;49.168;9.848;2023-07-08T04:07:39;96847.97;;;22.84;68.29
40502;BME280;29631;49.168;9.848;2023-07-08T04:10:05;96835.59;;;22.83;69.15
40502;BME280;29631;49.168;9.848;2023-07-08T04:12:31;96845.81;;;22.86;68.75
40502;BME280;29631;49.168;9.848;2023-07-08T04:14:57;96846.09;;;22.84;68.61
40502;BME280;29631;49.168;9.848;2023-07-08T04:17:23;96850.38;;;22.85;68.64
40502;BME280;29631;49.168;9.848;2023-07-08T04:19:50;96845.84;;;22.81;68.76
40502;BME280;29631;49.168;9.848;2023-07-08T04:22:16;96846.34;;;22.83;68.62
40502;BME280;29631;49.168;9.848;2023-07-08T04:24:42;96851.72;;;22.83;69.08
40502;BME280;29631;49.168;9.848;2023-07-08T04:27:16;96852.84;;;22.82;69.73
40502;BME280;29631;49.168;9.848;2023-07-08T04:29:43;96856.06;;;22.79;69.25
40502;BME280;29631;49.168;9.848;2023-07-08T04:32:10;96863.84;;;22.80;69.52
40502;BME280;29631;49.168;9.848;2023-07-08T04:34:35;96868.16;;;22.81;69.67
40502;BME280;29631;49.168;9.848;2023-07-08T04:37:01;96857.69;;;22.80;69.20
40502;BME280;29631;49.168;9.848;2023-07-08T04:39:30;96853.91;;;22.81;69.23
40502;BME280;29631;49.168;9.848;2023-07-08T04:41:56;96850.41;;;22.80;69.71
40502;BME280;29631;49.168;9.848;2023-07-08T04:44:22;96855.53;;;22.82;69.59
40502;BME280;29631;49.168;9.848;2023-07-08T04:46:57;96859.78;;;22.88;69.43
40502;BME280;29631;49.168;9.848;2023-07-08T04:49:24;96854.91;;;22.90;69.33
40502;BME280;29631;49.168;9.848;2023-07-08T04:51:53;96858.13;;;22.97;69.34
40502;BME280;29631;49.168;9.848;2023-07-08T04:54:19;96862.41;;;23.03;69.16
40502;BME280;29631;49.168;9.848;2023-07-08T04:56:48;96873.44;;;23.06;69.45
40502;BME280;29631;49.168;9.848;2023-07-08T04:59:17;96860.75;;;23.12;69.59
40502;BME280;29631;49.168;9.848;2023-07-08T05:01:44;96851.03;;;23.16;69.73
40502;BME280;29631;49.168;9.848;2023-07-08T05:04:14;96861.22;;;23.24;69.30
40502;BME280;29631;49.168;9.848;2023-07-08T05:06:40;96852.03;;;23.30;68.93
40502;BME280;29631;49.168;9.848;2023-07-08T05:09:06;96855.50;;;23.35;69.33
40502;BME280;29631;49.168;9.848;2023-07-08T05:11:32;96854.66;;;23.40;68.85
40502;BME280;29631;49.168;9.848;2023-07-08T05:13:58;96861.88;;;23.49;68.96
40502;BME280;29631;49.168;9.848;2023-07-08T05:16:24;96847.03;;;23.51;68.56
40502;BME280;29631;49.168;9.848;2023-07-08T05:18:50;96855.59;;;23.58;68.85
40502;BME280;29631;49.168;9.848;2023-07-08T05:21:18;96858.47;;;23.67;69.36
40502;BME280;29631;49.168;9.848;2023-07-08T05:23:45;96854.94;;;23.71;68.54
40502;BME280;29631;49.168;9.848;2023-07-08T05:26:10;96855.22;;;23.75;68.87
40502;BME280;29631;49.168;9.848;2023-07-08T05:28:37;96850.28;;;23.82;68.93
40502;BME280;29631;49.168;9.848;2023-07-08T05:31:02;96852.38;;;23.90;68.90
40502;BME280;29631;49.168;9.848;2023-07-08T05:33:30;96857.44;;;23.96;68.68
40502;BME280;29631;49.168;9.848;2023-07-08T05:35:56;96847.94;;;24.04;68.52
40502;BME280;29631;49.168;9.848;2023-07-08T05:38:24;96847.63;;;24.10;68.50
40502;BME280;29631;49.168;9.848;2023-07-08T05:40:54;96847.03;;;24.13;68.64
40502;BME280;29631;49.168;9.848;2023-07-08T05:43:20;96840.72;;;24.22;68.46
40502;BME280;29631;49.168;9.848;2023-07-08T05:45:46;96847.91;;;24.32;68.64
40502;BME280;29631;49.168;9.848;2023-07-08T05:48:12;96832.25;;;24.34;68.57
40502;BME280;29631;49.168;9.848;2023-07-08T05:50:39;96828.97;;;24.42;68.41
40502;BME280;29631;49.168;9.848;2023-07-08T05:53:09;96824.81;;;24.49;68.01
40502;BME280;29631;49.168;9.848;2023-07-08T05:55:35;96819.09;;;24.56;68.52
40502;BME280;29631;49.168;9.848;2023-07-08T05:58:01;96818.50;;;24.59;68.42
40502;BME280;29631;49.168;9.848;2023-07-08T06:00:27;96819.97;;;24.70;68.56
40502;BME280;29631;49.168;9.848;2023-07-08T06:02:53;96824.72;;;24.78;68.94
40502;BME280;29631;49.168;9.848;2023-07-08T06:05:18;96818.25;;;24.79;68.07
40502;BME280;29631;49.168;9.848;2023-07-08T06:07:44;96822.94;;;24.91;68.42
40502;BME280;29631;49.168;9.848;2023-07-08T06:10:10;96816.94;;;24.94;68.36
40502;BME280;29631;49.168;9.848;2023-07-08T06:12:36;96817.97;;;24.98;68.36
40502;BME280;29631;49.168;9.848;2023-07-08T06:15:02;96829.41;;;25.14;68.03
40502;BME280;29631;49.168;9.848;2023-07-08T06:17:28;96816.34;;;25.21;68.16
40502;BME280;29631;49.168;9.848;2023-07-08T06:19:54;96825.38;;;25.30;68.47
40502;BME280;29631;49.168;9.848;2023-07-08T06:22:19;96820.00;;;25.30;67.81
40502;BME280;29631;49.168;9.848;2023-07-08T06:24:45;96821.66;;;25.44;68.19
40502;BME280;29631;49.168;9.848;2023-07-08T06:27:13;96819.88;;;25.53;68.90
40502;BME280;29631;49.168;9.848;2023-07-08T06:29:39;96814.88;;;25.60;68.21
40502;BME280;29631;49.168;9.848;2023-07-08T06:32:05;96818.00;;;25.67;68.43
40502;BME280;29631;49.168;9.848;2023-07-08T06:34:31;96827.59;;;25.78;68.09
40502;BME280;29631;49.168;9.848;2023-07-08T06:36:57;96829.59;;;25.86;68.31
40502;BME280;29631;49.168;9.848;2023-07-08T06:39:23;96821.63;;;25.94;68.22
40502;BME280;29631;49.168;9.848;2023-07-08T06:41:49;96827.66;;;26.05;68.48
40502;BME280;29631;49.168;9.848;2023-07-08T06:44:14;96835.06;;;26.13;68.22
40502;BME280;29631;49.168;9.848;2023-07-08T06:46:40;96833.72;;;26.29;68.40
40502;BME280;29631;49.168;9.848;2023-07-08T06:49:06;96837.34;;;26.38;68.56
40502;BME280;29631;49.168;9.848;2023-07-08T06:51:37;96835.56;;;26.46;68.37
40502;BME280;29631;49.168;9.848;2023-07-08T06:54:03;96836.94;;;26.57;68.53
40502;BME280;29631;49.168;9.848;2023-07-08T06:56:31;96829.75;;;26.66;68.19
40502;BME280;29631;49.168;9.848;2023-07-08T06:58:57;96820.91;;;26.74;67.89
40502;BME280;29631;49.168;9.848;2023-07-08T07:01:22;96823.91;;;26.86;67.91
40502;BME280;29631;49.168;9.848;2023-07-08T07:03:49;96818.56;;;26.95;68.00
40502;BME280;29631;49.168;9.848;2023-07-08T07:06:15;96827.78;;;27.07;67.84
40502;BME280;29631;49.168;9.848;2023-07-08T07:08:41;96832.50;;;27.15;67.53
40502;BME280;29631;49.168;9.848;2023-07-08T07:11:06;96846.09;;;27.23;67.82
40502;BME280;29631;49.168;9.848;2023-07-08T07:13:32;96852.72;;;27.31;67.61
40502;BME280;29631;49.168;9.848;2023-07-08T07:15:58;96871.13;;;27.42;67.42
40502;BME280;29631;49.168;9.848;2023-07-08T07:18:24;96872.34;;;27.50;67.23
40502;BME280;29631;49.168;9.848;2023-07-08T07:20:53;96881.84;;;27.61;67.44
40502;BME280;29631;49.168;9.848;2023-07-08T07:23:20;96886.88;;;27.67;67.39
40502;BME280;29631;49.168;9.848;2023-07-08T07:25:46;96884.34;;;27.71;67.33
40502;BME280;29631;49.168;9.848;2023-07-08T07:28:16;96885.91;;;27.72;66.96
40502;BME280;29631;49.168;9.848;2023-07-08T07:30:44;96884.09;;;27.81;66.83
40502;BME280;29631;49.168;9.848;2023-07-08T07:33:12;96897.53;;;27.86;66.52
40502;BME280;29631;49.168;9.848;2023-07-08T07:35:44;96897.72;;;27.89;66.76
40502;BME280;29631;49.168;9.848;2023-07-08T07:38:12;96902.72;;;27.95;66.83
40502;BME280;29631;49.168;9.848;2023-07-08T07:40:39;96896.78;;;27.93;67.18
40502;BME280;29631;49.168;9.848;2023-07-08T07:43:05;96909.47;;;28.06;67.05
40502;BME280;29631;49.168;9.848;2023-07-08T07:45:32;96918.00;;;28.13;67.12
40502;BME280;29631;49.168;9.848;2023-07-08T07:47:57;96917.28;;;28.21;66.86
40502;BME280;29631;49.168;9.848;2023-07-08T07:50:23;96919.22;;;28.29;67.24
40502;BME280;29631;49.168;9.848;2023-07-08T07:52:49;96915.47;;;28.39;67.42
40502;BME280;29631;49.168;9.848;2023-07-08T07:55:15;96922.84;;;28.47;67.40
40502;BME280;29631;49.168;9.848;2023-07-08T07:57:41;96918.59;;;28.54;67.37
40502;BME280;29631;49.168;9.848;2023-07-08T08:00:08;96914.50;;;28.65;67.24
40502;BME280;29631;49.168;9.848;2023-07-08T08:02:37;96923.16;;;28.75;67.25
40502;BME280;29631;49.168;9.848;2023-07-08T08:05:03;96914.28;;;28.83;66.65
40502;BME280;29631;49.168;9.848;2023-07-08T08:07:28;96923.44;;;28.96;66.55
40502;BME280;29631;49.168;9.848;2023-07-08T08:09:54;96931.00;;;29.07;66.55
40502;BME280;29631;49.168;9.848;2023-07-08T08:12:21;96919.97;;;29.12;66.17
40502;BME280;29631;49.168;9.848;2023-07-08T08:14:50;96923.97;;;29.23;66.41
40502;BME280;29631;49.168;9.848;2023-07-08T08:17:16;96930.56;;;29.31;66.01
40502;BME280;29631;49.168;9.848;2023-07-08T08:19:42;96941.66;;;29.42;66.35
40502;BME280;29631;49.168;9.848;2023-07-08T08:22:08;96939.13;;;29.54;65.59
40502;BME280;29631;49.168;9.848;2023-07-08T08:24:34;96937.53;;;29.62;65.26
40502;BME280;29631;49.168;9.848;2023-07-08T08:27:00;96926.81;;;29.65;64.76
40502;BME280;29631;49.168;9.848;2023-07-08T08:29:26;96939.16;;;29.80;64.30
40502;BME280;29631;49.168;9.848;2023-07-08T08:31:51;96932.13;;;29.87;65.09
40502;BME280;29631;49.168;9.848;2023-07-08T08:34:17;96932.78;;;30.01;65.15
40502;BME280;29631;49.168;9.848;2023-07-08T08:36:43;96940.44;;;30.16;64.91
40502;BME280;29631;49.168;9.848;2023-07-08T08:39:09;96938.03;;;30.23;64.72
40502;BME280;29631;49.168;9.848;2023-07-08T08:41:41;96940.25;;;30.38;64.72
40502;BME280;29631;49.168;9.848;2023-07-08T08:44:17;96938.19;;;30.52;64.79
40502;BME280;29631;49.168;9.848;2023-07-08T08:47:09;96935.25;;;30.65;64.76
40502;BME280;29631;49.168;9.848;2023-07-08T08:49:50;96938.91;;;30.78;64.66
40502;BME280;29631;49.168;9.848;2023-07-08T08:52:19;96930.84;;;30.90;64.71
40502;BME280;29631;49.168;9.848;2023-07-08T08:54:45;96942.38;;;31.03;63.98
40502;BME280;29631;49.168;9.848;2023-07-08T08:57:14;96935.88;;;31.16;64.27
40502;BME280;29631;49.168;9.848;2023-07-08T08:59:56;96923.66;;;31.22;63.60
40502;BME280;29631;49.168;9.848;2023-07-08T09:05:50;96931.56;;;31.44;64.49
40502;BME280;29631;49.168;9.848;2023-07-08T09:08:34;96937.28;;;31.51;63.95
40502;BME280;29631;49.168;9.848;2023-07-08T09:13:57;96924.03;;;31.70;63.94
40502;BME280;29631;49.168;9.848;2023-07-08T09:16:49;96924.28;;;31.77;64.05
40502;BME280;29631;49.168;9.848;2023-07-08T09:19:35;96924.91;;;31.82;63.58
40502;BME280;29631;49.168;9.848;2023-07-08T09:22:18;96920.38;;;31.86;63.61
40502;BME280;29631;49.168;9.848;2023-07-08T09:27:55;96939.84;;;32.05;63.72
40502;BME280;29631;49.168;9.848;2023-07-08T09:30:23;96940.41;;;32.11;64.09
40502;BME280;29631;49.168;9.848;2023-07-08T09:32:51;96924.03;;;32.11;63.72
40502;BME280;29631;49.168;9.848;2023-07-08T09:35:37;96934.44;;;32.17;63.78
40502;BME280;29631;49.168;9.848;2023-07-08T09:38:08;96940.28;;;32.28;63.58
40502;BME280;29631;49.168;9.848;2023-07-08T09:40:34;96948.25;;;32.33;63.87
40502;BME280;29631;49.168;9.848;2023-07-08T09:43:27;96936.47;;;32.41;64.06
40502;BME280;29631;49.168;9.848;2023-07-08T09:45:59;96941.97;;;32.52;64.13
40502;BME280;29631;49.168;9.848;2023-07-08T09:48:33;96934.03;;;32.59;63.82
40502;BME280;29631;49.168;9.848;2023-07-08T09:50:59;96944.75;;;32.64;63.37
40502;BME280;29631;49.168;9.848;2023-07-08T09:53:25;96947.00;;;32.62;63.12
40502;BME280;29631;49.168;9.848;2023-07-08T09:55:53;96929.72;;;32.58;63.21
40502;BME280;29631;49.168;9.848;2023-07-08T09:58:29;96942.94;;;32.68;62.75
40502;BME280;29631;49.168;9.848;2023-07-08T10:01:01;96940.19;;;32.68;62.80
40502;BME280;29631;49.168;9.848;2023-07-08T10:03:34;96930.06;;;32.69;62.55
40502;BME280;29631;49.168;9.848;2023-07-08T10:06:16;96937.28;;;32.73;61.95
40502;BME280;29631;49.168;9.848;2023-07-08T10:08:44;96936.56;;;32.76;62.30
40502;BME280;29631;49.168;9.848;2023-07-08T10:11:25;96939.91;;;32.82;62.36
40502;BME280;29631;49.168;9.848;2023-07-08T10:13:54;96933.50;;;32.90;61.74
40502;BME280;29631;49.168;9.848;2023-07-08T10:16:30;96925.53;;;32.97;61.77
40502;BME280;29631;49.168;9.848;2023-07-08T10:18:58;96929.91;;;33.10;62.20
40502;BME280;29631;49.168;9.848;2023-07-08T10:21:51;96936.44;;;33.17;62.18
40502;BME280;29631;49.168;9.848;2023-07-08T10:24:44;96934.38;;;33.26;62.00
40502;BME280;29631;49.168;9.848;2023-07-08T10:27:45;96936.66;;;33.36;62.16
40502;BME280;29631;49.168;9.848;2023-07-08T10:30:55;96934.25;;;33.46;61.68
40502;BME280;29631;49.168;9.848;2023-07-08T10:33:33;96936.88;;;33.55;61.48
40502;BME280;29631;49.168;9.848;2023-07-08T10:42:21;96930.03;;;33.73;61.14
40502;BME280;29631;49.168;9.848;2023-07-08T10:45:19;96931.13;;;33.84;61.51
40502;BME280;29631;49.168;9.848;2023-07-08T10:51:16;96923.34;;;33.97;61.77
40502;BME280;29631;49.168;9.848;2023-07-08T10:56:48;96925.59;;;34.19;61.31
40502;BME280;29631;49.168;9.848;2023-07-08T11:02:31;96913.44;;;34.32;61.15
40502;BME280;29631;49.168;9.848;2023-07-08T11:05:27;96910.44;;;34.37;60.61
40502;BME280;29631;49.168;9.848;2023-07-08T11:08:24;96912.03;;;34.38;60.79
40502;BME280;29631;49.168;9.848;2023-07-08T11:11:06;96908.34;;;34.46;60.89
40502;BME280;29631;49.168;9.848;2023-07-08T11:13:38;96897.88;;;34.36;60.41
40502;BME280;29631;49.168;9.848;2023-07-08T11:16:19;96913.63;;;34.39;60.22
40502;BME280;29631;49.168;9.848;2023-07-08T11:19:34;96899.91;;;34.39;60.03
40502;BME280;29631;49.168;9.848;2023-07-08T11:22:00;96911.31;;;34.53;60.66
40502;BME280;29631;49.168;9.848;2023-07-08T11:27:15;96914.84;;;34.69;60.55
40502;BME280;29631;49.168;9.848;2023-07-08T11:30:04;96912.28;;;34.76;60.38
40502;BME280;29631;49.168;9.848;2023-07-08T11:32:33;96910.88;;;34.82;60.05
40502;BME280;29631;49.168;9.848;2023-07-08T11:35:03;96893.28;;;34.83;59.98
40502;BME280;29631;49.168;9.848;2023-07-08T11:37:30;96893.91;;;34.92;60.26
40502;BME280;29631;49.168;9.848;2023-07-08T11:40:18;96899.13;;;34.97;59.61
40502;BME280;29631;49.168;9.848;2023-07-08T11:43:00;96891.78;;;35.01;60.19
40502;BME280;29631;49.168;9.848;2023-07-08T11:45:37;96895.00;;;35.03;59.63
40502;BME280;29631;49.168;9.848;2023-07-08T11:48:16;96892.69;;;35.05;59.63
40502;BME280;29631;49.168;9.848;2023-07-08T11:50:45;96887.34;;;35.12;60.02
40502;BME280;29631;49.168;9.848;2023-07-08T11:53:35;96882.47;;;35.21;60.08
40502;BME280;29631;49.168;9.848;2023-07-08T11:58:58;96879.34;;;35.38;59.35
40502;BME280;29631;49.168;9.848;2023-07-08T12:04:24;96878.06;;;35.47;58.85
40502;BME280;29631;49.168;9.848;2023-07-08T12:09:46;96869.69;;;35.59;58.97
40502;BME280;29631;49.168;9.848;2023-07-08T12:12:30;96870.19;;;35.64;58.73
40502;BME280;29631;49.168;9.848;2023-07-08T12:15:29;96864.69;;;35.64;59.11
40502;BME280;29631;49.168;9.848;2023-07-08T12:18:13;96875.47;;;35.73;58.48
40502;BME280;29631;49.168;9.848;2023-07-08T12:20:41;96869.34;;;35.79;58.36
40502;BME280;29631;49.168;9.848;2023-07-08T12:23:22;96876.44;;;35.80;57.57
40502;BME280;29631;49.168;9.848;2023-07-08T12:25:48;96870.78;;;35.73;58.21
40502;BME280;29631;49.168;9.848;2023-07-08T12:28:15;96867.59;;;35.71;57.50
40502;BME280;29631;49.168;9.848;2023-07-08T12:30:43;96857.41;;;35.72;57.75
40502;BME280;29631;49.168;9.848;2023-07-08T12:33:34;96864.56;;;35.76;57.76
40502;BME280;29631;49.168;9.848;2023-07-08T12:36:01;96859.06;;;35.76;57.53
40502;BME280;29631;49.168;9.848;2023-07-08T12:38:44;96858.50;;;35.67;57.13
40502;BME280;29631;49.168;9.848;2023-07-08T12:41:21;96864.00;;;35.67;57.35
40502;BME280;29631;49.168;9.848;2023-07-08T12:43:48;96869.13;;;35.69;57.61
40502;BME280;29631;49.168;9.848;2023-07-08T12:46:17;96874.53;;;35.65;57.35
40502;BME280;29631;49.168;9.848;2023-07-08T12:48:43;96871.34;;;35.63;56.99
40502;BME280;29631;49.168;9.848;2023-07-08T12:51:16;96854.00;;;35.59;57.23
40502;BME280;29631;49.168;9.848;2023-07-08T12:53:43;96857.75;;;35.70;57.15
40502;BME280;29631;49.168;9.848;2023-07-08T12:56:10;96862.25;;;35.78;57.66
40502;BME280;29631;49.168;9.848;2023-07-08T12:58:48;96861.69;;;35.88;57.29
40502;BME280;29631;49.168;9.848;2023-07-08T13:01:26;96858.84;;;36.00;57.66
40502;BME280;29631;49.168;9.848;2023-07-08T13:03:59;96856.63;;;36.09;57.59
40502;BME280;29631;49.168;9.848;2023-07-08T13:06:30;96852.16;;;36.20;57.78
40502;BME280;29631;49.168;9.848;2023-07-08T13:09:44;96841.59;;;36.22;57.90
40502;BME280;29631;49.168;9.848;2023-07-08T13:12:21;96855.59;;;36.36;57.81
40502;BME280;29631;49.168;9.848;2023-07-08T13:14:53;96861.25;;;36.43;57.54
40502;BME280;29631;49.168;9.848;2023-07-08T13:17:21;96862.06;;;36.43;57.10
40502;BME280;29631;49.168;9.848;2023-07-08T13:19:47;96858.94;;;36.45;57.11
40502;BME280;29631;49.168;9.848;2023-07-08T13:22:20;96860.22;;;36.51;56.96
40502;BME280;29631;49.168;9.848;2023-07-08T13:24:47;96855.25;;;36.56;57.06
40502;BME280;29631;49.168;9.848;2023-07-08T13:27:31;96864.41;;;36.64;57.23
40502;BME280;29631;49.168;9.848;2023-07-08T13:30:20;96861.66;;;36.64;57.03
40502;BME280;29631;49.168;9.848;2023-07-08T13:32:58;96856.72;;;36.54;56.69
40502;BME280;29631;49.168;9.848;2023-07-08T13:35:37;96860.78;;;36.60;57.12
40502;BME280;29631;49.168;9.848;2023-07-08T13:38:04;96863.97;;;36.62;56.98
40502;BME280;29631;49.168;9.848;2023-07-08T13:40:31;96863.25;;;36.65;56.59
40502;BME280;29631;49.168;9.848;2023-07-08T13:42:57;96861.22;;;36.62;56.71
40502;BME280;29631;49.168;9.848;2023-07-08T13:45:27;96861.09;;;36.55;56.25
40502;BME280;29631;49.168;9.848;2023-07-08T13:48:00;96843.16;;;36.42;56.14
40502;BME280;29631;49.168;9.848;2023-07-08T13:50:30;96858.94;;;36.45;56.14
40502;BME280;29631;49.168;9.848;2023-07-08T13:52:58;96850.53;;;36.38;56.50
40502;BME280;29631;49.168;9.848;2023-07-08T13:55:24;96848.09;;;36.33;56.46
40502;BME280;29631;49.168;9.848;2023-07-08T13:58:00;96846.94;;;36.34;56.46
40502;BME280;29631;49.168;9.848;2023-07-08T14:00:29;96837.94;;;36.37;56.66
40502;BME280;29631;49.168;9.848;2023-07-08T14:02:56;96845.50;;;36.40;56.47
40502;BME280;29631;49.168;9.848;2023-07-08T14:05:21;96848.78;;;36.49;56.30
40502;BME280;29631;49.168;9.848;2023-07-08T14:07:47;96848.06;;;36.52;56.34
40502;BME280;29631;49.168;9.848;2023-07-08T14:10:14;96840.31;;;36.57;56.21